KJAU

Campbell County Airport

Jacksboro, Tennessee, USA
METAR KJAU 211535Z AUTO VRB05G10KT 10SM CLR M08/M17 A3056 RMK A01
Observed Flight Rules
Jan-21 @ 15:35 UTC (27 minutes ago) Visual Flight Rules
Wind Visibility Clouds
Variable at 5 knots
 Gusting to 10 knots
10 miles
  • Clear skies
Temperatures Readings
Current -8°C / 18°F
Dewpoint -17°C / 1°F
Humidity 49%
Altimeter 30.56" Hg
Pressure 1034.91 hPa
Elevation 360
METAR KJAU 211535Z AUTO VRB05G10KT 10SM CLR M08/M17 A3056 RMK A01
Observed Flight Rules
Jan-21 @ 15:35 UTC
(27 minutes ago)
VFR
Wind Visibility
Variable at 5 knots
 Gusting to 10 knots
10 miles
Clouds
  • Clear skies
Temperature Dewpoint
-8°C / 18°F -17°C / 1°F
Humidity Altimeter Pressure
49% 30.56" Hg 1034.91 hPa